Terminal Aerodrome Forecast
Issued by NWS

Home | Current Version | Previous Version | Text Only | Print | Product List | Glossary On
Versions: 1 2 3 4 5 6 7 8 9 10 11 12 13
000
FTUS46 KSTO 221700
TAFMHR
TAF
KMHR 221732Z 2218/2318 VRB05KT P6SM FEW025
     FM222000 25006KT P6SM FEW250
     FM230600 15006KT P6SM SCT250=

USA.gov is the U.S. government's official web portal to all federal, state and local government web resources and services.